createdAt,value
2018-05-17T00:02:16.938Z,6.13
2018-05-17T00:04:44.499Z,6.43
2018-05-17T00:07:12.085Z,6.53
2018-05-17T00:09:40.414Z,5.73
2018-05-17T00:12:07.985Z,6.50
2018-05-17T00:14:35.534Z,7.03
2018-05-17T00:17:03.112Z,6.43
2018-05-17T00:19:30.666Z,7.10
2018-05-17T00:21:58.249Z,7.70
2018-05-17T00:24:25.810Z,6.87
2018-05-17T00:26:53.389Z,8.23
2018-05-17T00:29:21.709Z,9.07
2018-05-17T00:31:49.287Z,9.63
2018-05-17T00:34:16.837Z,7.57
2018-05-17T00:36:44.412Z,12.07
2018-05-17T00:39:11.962Z,8.60
2018-05-17T00:41:39.542Z,8.47
2018-05-17T00:44:07.097Z,7.97
2018-05-17T00:46:34.678Z,8.40
2018-05-17T00:49:02.257Z,9.53
2018-05-17T00:51:29.834Z,9.40
2018-05-17T00:53:57.383Z,7.80
2018-05-17T00:56:24.962Z,9.70
2018-05-17T00:58:52.521Z,10.20
2018-05-17T01:01:20.892Z,9.40
2018-05-17T01:03:48.436Z,9.00
2018-05-17T01:06:16.003Z,9.40
2018-05-17T01:08:43.548Z,8.67
2018-05-17T01:11:11.116Z,10.00
2018-05-17T01:13:38.656Z,7.80
2018-05-17T01:16:06.226Z,8.40
2018-05-17T01:18:33.769Z,7.53
2018-05-17T01:21:01.336Z,8.50
2018-05-17T01:23:28.885Z,7.80
2018-05-17T01:25:56.455Z,9.30
2018-05-17T01:28:24.497Z,7.57
2018-05-17T01:30:52.091Z,7.80
2018-05-17T01:33:19.661Z,8.53
2018-05-17T01:35:47.236Z,10.43
2018-05-17T01:38:25.672Z,10.60
2018-05-17T01:40:53.220Z,10.60
2018-05-17T01:43:20.796Z,10.37
2018-05-17T01:45:48.341Z,9.57
2018-05-17T01:48:15.918Z,12.93
2018-05-17T01:50:44.239Z,12.87
2018-05-17T01:53:11.820Z,12.03
2018-05-17T01:55:39.372Z,13.00
2018-05-17T01:58:06.951Z,13.27
2018-05-17T02:00:34.510Z,14.00
2018-05-17T02:03:02.148Z,13.00
2018-05-17T02:05:29.696Z,14.67
2018-05-17T02:07:57.268Z,14.83
2018-05-17T02:10:24.818Z,15.20
2018-05-17T02:12:52.382Z,14.10
2018-05-17T02:15:19.939Z,13.10
2018-05-17T02:17:47.513Z,12.50
2018-05-17T02:20:15.061Z,13.33
2018-05-17T02:22:42.641Z,14.03
2018-05-17T02:25:10.189Z,13.20
2018-05-17T02:27:38.529Z,13.77
2018-05-17T02:30:06.076Z,14.63
2018-05-17T02:32:33.654Z,14.43
2018-05-17T02:35:01.201Z,15.50
2018-05-17T02:37:28.749Z,14.37
2018-05-17T02:39:56.331Z,16.40
2018-05-17T02:42:23.895Z,15.87
2018-05-17T02:44:51.463Z,15.53
2018-05-17T02:47:19.013Z,15.20
2018-05-17T02:49:46.585Z,15.40
2018-05-17T02:52:14.130Z,15.60
2018-05-17T02:54:41.713Z,14.47
2018-05-17T02:57:09.273Z,14.77
2018-05-17T02:59:36.853Z,14.83
2018-05-17T03:02:05.241Z,15.90
2018-05-17T03:04:33.596Z,15.60
2018-05-17T03:07:01.153Z,14.70
2018-05-17T03:09:28.733Z,14.77
2018-05-17T03:11:57.064Z,15.00
2018-05-17T03:14:24.645Z,15.10
2018-05-17T03:16:52.201Z,14.63
2018-05-17T03:19:19.788Z,15.13
2018-05-17T03:21:48.110Z,15.90
2018-05-17T03:24:15.694Z,16.03
2018-05-17T03:26:43.253Z,16.97
2018-05-17T03:29:10.834Z,16.00
2018-05-17T03:31:38.390Z,15.53
2018-05-17T03:34:06.012Z,20.17
2018-05-17T03:36:33.574Z,21.20
2018-05-17T03:39:01.152Z,17.23
2018-05-17T03:41:28.714Z,18.23
2018-05-17T03:43:56.298Z,22.87
2018-05-17T03:46:24.623Z,19.53
2018-05-17T03:48:52.210Z,17.50
2018-05-17T03:51:19.766Z,17.17
2018-05-17T03:53:47.327Z,18.33
2018-05-17T03:56:14.915Z,20.27
2018-05-17T03:58:43.245Z,19.83
2018-05-17T04:01:22.631Z,18.27
2018-05-17T04:04:03.027Z,19.70
2018-05-17T04:06:41.429Z,18.73
2018-05-17T04:09:09.014Z,17.97
2018-05-17T04:11:36.578Z,17.33
2018-05-17T04:14:04.137Z,16.73
2018-05-17T04:16:31.724Z,17.53
2018-05-17T04:18:59.306Z,16.63
2018-05-17T04:21:26.899Z,16.80
2018-05-17T04:23:54.472Z,15.60
2018-05-17T04:26:22.062Z,16.17
2018-05-17T04:28:49.624Z,18.97
2018-05-17T04:31:17.210Z,17.30
2018-05-17T04:33:44.766Z,17.40
2018-05-17T04:36:12.341Z,17.43
2018-05-17T04:38:39.895Z,18.23
2018-05-17T04:41:07.478Z,16.40
2018-05-17T04:43:35.069Z,17.27
2018-05-17T04:46:03.603Z,17.97
2018-05-17T04:48:31.164Z,18.37
2018-05-17T04:50:58.742Z,19.43
2018-05-17T04:53:26.298Z,20.27
2018-05-17T04:55:53.886Z,17.60
2018-05-17T04:58:21.446Z,18.50
2018-05-17T05:00:49.766Z,19.50
2018-05-17T05:03:17.325Z,20.23
2018-05-17T05:05:44.912Z,17.30
2018-05-17T05:08:13.271Z,18.50
2018-05-17T05:10:40.853Z,19.33
2018-05-17T05:13:08.413Z,16.80
2018-05-17T05:15:36.001Z,16.97
2018-05-17T05:18:04.334Z,17.97
2018-05-17T05:20:31.890Z,16.93
2018-05-17T05:22:59.474Z,17.37
2018-05-17T05:25:27.029Z,16.90
2018-05-17T05:27:54.620Z,17.67
2018-05-17T05:30:22.955Z,18.97
2018-05-17T05:32:50.546Z,17.30
2018-05-17T05:35:18.111Z,17.70
2018-05-17T05:37:46.460Z,19.13
2018-05-17T05:40:14.017Z,17.30
2018-05-17T05:42:41.601Z,15.67
2018-05-17T05:45:09.171Z,13.70
2018-05-17T05:47:37.517Z,13.80
2018-05-17T05:50:05.223Z,13.90
2018-05-17T05:52:33.569Z,14.53
2018-05-17T05:55:01.130Z,13.10
2018-05-17T05:57:28.710Z,13.73
2018-05-17T05:59:57.038Z,13.73
2018-05-17T06:02:24.673Z,14.47
2018-05-17T06:04:52.962Z,14.53
2018-05-17T06:07:20.537Z,14.60
2018-05-17T06:09:48.105Z,19.90
2018-05-17T06:12:15.688Z,47.77
2018-05-17T06:14:43.245Z,23.40
2018-05-17T06:17:10.837Z,19.97
2018-05-17T06:19:38.397Z,19.13
2018-05-17T06:22:06.020Z,18.50
2018-05-17T06:24:33.581Z,17.50
2018-05-17T06:27:01.196Z,18.13
2018-05-17T06:29:28.756Z,23.67
2018-05-17T06:31:56.318Z,30.23
2018-05-17T06:34:23.901Z,30.80
2018-05-17T06:36:51.466Z,28.27
2018-05-17T06:39:19.050Z,28.60
2018-05-17T06:41:46.607Z,27.47
2018-05-17T06:44:14.954Z,27.10
2018-05-17T06:46:42.528Z,27.17
2018-05-17T06:49:10.138Z,25.80
2018-05-17T06:51:37.694Z,28.97
2018-05-17T06:54:05.272Z,28.63
2018-05-17T06:56:32.837Z,27.87
2018-05-17T06:59:00.421Z,26.43
2018-05-17T07:01:28.559Z,23.70
2018-05-17T07:03:56.141Z,23.37
2018-05-17T07:06:23.705Z,23.37
2018-05-17T07:08:51.290Z,21.90
2018-05-17T07:11:18.849Z,19.30
2018-05-17T07:13:47.193Z,20.07
2018-05-17T07:16:14.749Z,20.50
2018-05-17T07:18:42.681Z,19.57
2018-05-17T07:21:09.913Z,18.17
2018-05-17T07:23:38.262Z,14.60
2018-05-17T07:26:05.825Z,16.73
2018-05-17T07:28:33.405Z,17.87
2018-05-17T07:31:00.974Z,18.30
2018-05-17T07:33:28.554Z,18.83
2018-05-17T07:35:56.114Z,18.80
2018-05-17T07:38:23.697Z,18.80
2018-05-17T07:40:51.261Z,19.80
2018-05-17T07:43:18.855Z,19.93
2018-05-17T07:45:47.183Z,22.47
2018-05-17T07:48:14.765Z,20.77
2018-05-17T07:50:42.322Z,18.77
2018-05-17T07:53:09.901Z,18.50
2018-05-17T07:55:38.292Z,20.83
2018-05-17T07:58:05.846Z,19.50
2018-05-17T08:00:33.486Z,22.00
2018-05-17T08:03:01.019Z,20.30
2018-05-17T08:05:28.611Z,17.50
2018-05-17T08:07:56.940Z,19.60
2018-05-17T08:10:24.517Z,19.57
2018-05-17T08:12:52.079Z,23.27
2018-05-17T08:15:19.660Z,17.67
2018-05-17T08:17:47.222Z,16.47
2018-05-17T08:20:15.656Z,19.20
2018-05-17T08:22:43.152Z,21.03
2018-05-17T08:25:10.745Z,18.97
2018-05-17T08:27:38.309Z,22.87
2018-05-17T08:30:05.893Z,25.70
2018-05-17T08:32:34.497Z,26.47
2018-05-17T08:35:02.083Z,27.23
2018-05-17T08:37:30.409Z,25.97
2018-05-17T08:39:58.000Z,28.37
2018-05-17T08:42:25.585Z,28.37
2018-05-17T08:44:53.930Z,32.43
2018-05-17T08:47:21.501Z,30.77
2018-05-17T08:49:49.085Z,33.67
2018-05-17T08:52:17.410Z,29.43
2018-05-17T08:54:44.993Z,34.93
2018-05-17T08:57:12.553Z,32.20
2018-05-17T08:59:40.173Z,33.87
2018-05-17T09:02:07.713Z,35.50
2018-05-17T09:04:35.298Z,33.70
2018-05-17T09:07:02.864Z,33.20
2018-05-17T09:09:30.464Z,30.47
2018-05-17T09:11:58.790Z,31.97
2018-05-17T09:14:26.738Z,31.97
2018-05-17T09:16:54.989Z,29.80
2018-05-17T09:19:22.602Z,33.27
2018-05-17T09:21:50.189Z,29.17
2018-05-17T09:24:17.746Z,29.93
2018-05-17T09:26:45.338Z,28.37
2018-05-17T09:29:12.972Z,28.30
2018-05-17T09:31:40.526Z,29.23
2018-05-17T09:34:08.091Z,30.03
2018-05-17T09:36:37.181Z,27.90
2018-05-17T09:39:05.643Z,26.83
2018-05-17T09:41:33.227Z,28.73
2018-05-17T09:44:00.785Z,27.17
2018-05-17T09:46:28.361Z,29.73
2018-05-17T09:48:56.694Z,25.33
2018-05-17T09:51:24.276Z,26.10
2018-05-17T09:53:51.833Z,29.13
2018-05-17T09:56:19.413Z,30.87
2018-05-17T09:58:47.738Z,28.70
2018-05-17T10:01:15.325Z,27.23
2018-05-17T10:03:42.888Z,29.00
2018-05-17T10:06:10.466Z,28.07
2018-05-17T10:08:38.031Z,27.73
2018-05-17T10:11:05.610Z,28.07
2018-05-17T10:13:33.165Z,28.17
2018-05-17T10:16:00.765Z,33.17
2018-05-17T10:18:28.898Z,27.27
2018-05-17T10:20:56.489Z,29.43
2018-05-17T10:23:24.046Z,30.07
2018-05-17T10:25:51.606Z,27.53
2018-05-17T10:28:19.195Z,29.40
2018-05-17T10:30:46.755Z,32.40
2018-05-17T10:33:14.343Z,27.63
2018-05-17T10:35:41.900Z,31.13
2018-05-17T10:38:10.482Z,31.53
2018-05-17T10:40:38.052Z,29.20
2018-05-17T10:43:05.639Z,30.43
2018-05-17T10:45:33.197Z,31.70
2018-05-17T10:48:01.606Z,31.47
2018-05-17T10:50:29.167Z,31.23
2018-05-17T10:52:56.746Z,30.00
2018-05-17T10:55:24.311Z,31.53
2018-05-17T10:57:51.898Z,32.80
2018-05-17T11:00:19.459Z,30.20
2018-05-17T11:02:47.037Z,31.57
2018-05-17T11:05:14.601Z,32.10
2018-05-17T11:07:42.191Z,33.70
2018-05-17T11:10:10.519Z,33.97
2018-05-17T11:12:38.098Z,31.50
2018-05-17T11:15:05.671Z,28.63
2018-05-17T11:17:33.255Z,29.60
2018-05-17T11:20:00.966Z,27.53
2018-05-17T11:22:28.558Z,31.13
2018-05-17T11:24:56.117Z,30.43
2018-05-17T11:27:23.705Z,31.07
2018-05-17T11:29:51.273Z,30.27
2018-05-17T11:32:18.855Z,28.43
2018-05-17T11:34:46.422Z,28.90
2018-05-17T11:37:14.011Z,26.53
2018-05-17T11:39:41.577Z,31.80
2018-05-17T11:42:09.134Z,31.73
2018-05-17T11:44:37.486Z,29.07
2018-05-17T11:47:05.046Z,30.40
2018-05-17T11:49:32.625Z,29.93
2018-05-17T11:52:00.958Z,30.70
2018-05-17T11:54:28.541Z,30.03
2018-05-17T11:56:56.107Z,30.53
2018-05-17T11:59:23.689Z,29.13
2018-05-17T12:01:51.247Z,28.40
2018-05-17T12:04:19.592Z,30.07
2018-05-17T12:06:47.153Z,27.93
2018-05-17T12:09:14.739Z,28.30
2018-05-17T12:11:43.141Z,29.10
2018-05-17T12:14:10.726Z,26.23
2018-05-17T12:16:38.487Z,27.40
2018-05-17T12:19:06.073Z,27.20
2018-05-17T12:21:34.402Z,29.30
2018-05-17T12:24:01.982Z,29.50
2018-05-17T12:26:29.548Z,30.10
2018-05-17T12:28:57.134Z,28.63
2018-05-17T12:31:24.706Z,28.63
2018-05-17T12:33:52.287Z,28.40
2018-05-17T12:36:19.857Z,27.30
2018-05-17T12:38:47.440Z,27.87
2018-05-17T12:41:14.992Z,28.43
2018-05-17T12:43:42.581Z,26.23
2018-05-17T12:46:10.144Z,29.83
2018-05-17T12:48:37.734Z,26.90
2018-05-17T12:51:05.297Z,27.87
2018-05-17T12:53:33.623Z,28.30
2018-05-17T12:56:01.223Z,27.60
2018-05-17T12:58:28.818Z,25.53
2018-05-17T13:00:56.385Z,26.97
2018-05-17T13:03:23.950Z,27.70
2018-05-17T13:05:51.536Z,25.40
2018-05-17T13:08:19.105Z,32.10
2018-05-17T13:10:46.694Z,26.03
2018-05-17T13:13:14.244Z,25.23
2018-05-17T13:15:42.595Z,26.63
2018-05-17T13:18:10.160Z,24.27
2018-05-17T13:20:37.741Z,23.83
2018-05-17T13:23:05.302Z,25.70
2018-05-17T13:25:33.653Z,24.80
2018-05-17T13:28:01.227Z,24.83
2018-05-17T13:30:28.821Z,26.70
2018-05-17T13:32:56.391Z,28.47
2018-05-17T13:35:23.978Z,25.43
2018-05-17T13:37:52.306Z,25.23
2018-05-17T13:40:19.890Z,25.97
2018-05-17T13:42:47.455Z,25.70
2018-05-17T13:45:15.047Z,24.70
2018-05-17T13:47:42.662Z,26.63
2018-05-17T13:50:10.220Z,27.73
2018-05-17T13:52:37.815Z,27.13
2018-05-17T13:55:06.093Z,28.40
2018-05-17T13:57:33.727Z,26.53
2018-05-17T14:00:01.310Z,25.60
2018-05-17T14:02:28.947Z,25.67
2018-05-17T14:04:57.240Z,25.47
2018-05-17T14:07:24.825Z,26.23
2018-05-17T14:09:52.387Z,27.17
2018-05-17T14:12:19.972Z,23.80
2018-05-17T14:14:48.065Z,26.23
2018-05-17T14:17:15.806Z,27.23
2018-05-17T14:19:43.371Z,24.43
2018-05-17T14:22:10.957Z,25.43
2018-05-17T14:24:38.521Z,23.30
2018-05-17T14:27:06.110Z,24.27
2018-05-17T14:29:33.687Z,24.23
2018-05-17T14:32:02.062Z,27.17
2018-05-17T14:34:29.672Z,26.10
2018-05-17T14:36:57.262Z,24.67
2018-05-17T14:39:24.826Z,26.43
2018-05-17T14:41:53.188Z,25.77
2018-05-17T14:44:20.771Z,25.37
2018-05-17T14:46:48.355Z,25.40
2018-05-17T14:49:15.922Z,27.23
2018-05-17T14:51:43.507Z,25.60
2018-05-17T14:54:11.064Z,25.27
2018-05-17T14:56:38.650Z,27.20
2018-05-17T14:59:06.205Z,25.60
2018-05-17T15:01:33.863Z,23.87
2018-05-17T15:04:01.378Z,25.60
2018-05-17T15:06:28.933Z,23.00
2018-05-17T15:08:56.591Z,23.50
2018-05-17T15:11:24.190Z,22.13
2018-05-17T15:13:52.572Z,19.30
2018-05-17T15:16:20.832Z,20.97
2018-05-17T15:18:48.417Z,21.70
2018-05-17T15:21:15.981Z,20.93
2018-05-17T15:23:43.564Z,22.30
2018-05-17T15:26:14.023Z,21.20
2018-05-17T15:28:41.686Z,21.10
2018-05-17T15:31:09.247Z,23.37
2018-05-17T15:33:36.830Z,22.27
2018-05-17T15:36:04.389Z,20.50
2018-05-17T15:38:31.969Z,21.77
2018-05-17T15:40:59.532Z,21.07
2018-05-17T15:43:27.881Z,21.57
2018-05-17T15:45:55.439Z,21.90
2018-05-17T15:48:23.027Z,22.60
2018-05-17T15:50:51.377Z,20.20
2018-05-17T15:53:18.961Z,19.70
2018-05-17T15:55:46.523Z,20.40
2018-05-17T15:58:14.869Z,19.83
2018-05-17T16:00:42.433Z,20.97
2018-05-17T16:03:10.022Z,21.30
2018-05-17T16:05:37.584Z,20.07
2018-05-17T16:08:05.167Z,18.93
2018-05-17T16:10:32.731Z,20.00
2018-05-17T16:13:00.299Z,21.97
2018-05-17T16:15:27.967Z,18.97
2018-05-17T16:17:55.471Z,19.23
2018-05-17T16:20:23.065Z,18.83
2018-05-17T16:22:50.623Z,20.80
2018-05-17T16:25:18.202Z,18.50
2018-05-17T16:27:45.762Z,20.60
2018-05-17T16:30:13.343Z,18.67
2018-05-17T16:32:40.913Z,20.17
2018-05-17T16:35:08.512Z,20.60
2018-05-17T16:37:36.073Z,19.83
2018-05-17T16:40:03.682Z,20.77
2018-05-17T16:42:31.242Z,20.97
2018-05-17T16:44:59.147Z,19.10
2018-05-17T16:47:27.476Z,19.97
2018-05-17T16:49:55.061Z,19.93
2018-05-17T16:52:22.621Z,20.33
2018-05-17T16:54:51.038Z,19.27
2018-05-17T16:57:18.600Z,19.77
2018-05-17T16:59:46.186Z,19.90
2018-05-17T17:02:13.750Z,19.87
2018-05-17T17:04:41.413Z,19.27
2018-05-17T17:07:08.921Z,22.10
2018-05-17T17:09:36.505Z,21.60
2018-05-17T17:12:04.066Z,19.77
2018-05-17T17:14:31.651Z,20.20
2018-05-17T17:16:59.214Z,18.87
2018-05-17T17:19:26.811Z,20.27
2018-05-17T17:21:54.399Z,20.60
2018-05-17T17:24:21.970Z,20.23
2018-05-17T17:26:49.553Z,18.87
2018-05-17T17:29:17.110Z,19.93
2018-05-17T17:31:44.729Z,20.20
2018-05-17T17:34:12.358Z,19.10
2018-05-17T17:36:39.917Z,22.17
2018-05-17T17:39:07.472Z,21.40
2018-05-17T17:41:35.826Z,22.00
2018-05-17T17:44:03.431Z,19.80
2018-05-17T17:46:31.013Z,21.03
2018-05-17T17:48:58.578Z,23.27
2018-05-17T17:51:26.158Z,27.93
2018-05-17T17:53:53.727Z,18.13
2018-05-17T17:56:21.317Z,19.60
2018-05-17T17:58:49.643Z,17.10
2018-05-17T18:01:17.237Z,17.87
2018-05-17T18:03:44.802Z,18.57
2018-05-17T18:06:13.159Z,17.93
2018-05-17T18:08:40.726Z,17.77
2018-05-17T18:11:08.317Z,19.23
2018-05-17T18:13:35.878Z,18.60
2018-05-17T18:16:03.485Z,17.83
2018-05-17T18:18:32.558Z,19.00
2018-05-17T18:21:00.159Z,18.50
2018-05-17T18:23:27.736Z,18.00
2018-05-17T18:25:55.326Z,17.83
2018-05-17T18:28:22.910Z,17.97
2018-05-17T18:30:50.524Z,17.63
2018-05-17T18:33:19.713Z,17.73
2018-05-17T18:35:47.270Z,18.53
2018-05-17T18:38:15.624Z,16.77
2018-05-17T18:40:43.191Z,18.40
2018-05-17T18:43:11.380Z,18.30
2018-05-17T18:45:38.940Z,17.77
2018-05-17T18:48:07.321Z,17.83
2018-05-17T18:50:34.896Z,19.53
2018-05-17T18:53:02.487Z,18.00
2018-05-17T18:55:30.046Z,17.97
2018-05-17T18:57:57.637Z,17.97
2018-05-17T19:00:25.208Z,18.77
2018-05-17T19:02:53.574Z,18.33
2018-05-17T19:05:21.920Z,19.70
2018-05-17T19:07:49.515Z,19.30
2018-05-17T19:10:17.192Z,20.20
2018-05-17T19:12:45.550Z,21.63
2018-05-17T19:15:13.882Z,20.00
2018-05-17T19:17:41.465Z,19.50
2018-05-17T19:20:09.069Z,20.40
2018-05-17T19:22:36.675Z,20.83
2018-05-17T19:25:04.246Z,19.27
2018-05-17T19:27:31.829Z,20.33
2018-05-17T19:29:59.406Z,20.23
2018-05-17T19:32:27.757Z,22.33
2018-05-17T19:34:55.344Z,23.10
2018-05-17T19:37:23.023Z,22.10
2018-05-17T19:39:50.518Z,21.80
2018-05-17T19:42:18.109Z,21.23
2018-05-17T19:44:46.433Z,23.80
2018-05-17T19:47:14.009Z,21.40
2018-05-17T19:49:41.602Z,20.17
2018-05-17T19:52:09.181Z,22.30
2018-05-17T19:54:36.763Z,21.37
2018-05-17T19:57:04.330Z,20.37
2018-05-17T19:59:31.917Z,21.57
2018-05-17T20:01:59.499Z,20.87
2018-05-17T20:04:27.089Z,20.67
2018-05-17T20:06:54.653Z,22.40
2018-05-17T20:09:22.238Z,22.70
2018-05-17T20:11:49.807Z,26.50
2018-05-17T20:14:17.397Z,24.23
2018-05-17T20:16:44.958Z,21.80
2018-05-17T20:19:13.310Z,23.60
2018-05-17T20:21:40.882Z,22.50
2018-05-17T20:24:08.466Z,23.00
2018-05-17T20:26:36.025Z,23.87
2018-05-17T20:29:03.699Z,21.03
2018-05-17T20:31:31.252Z,23.10
2018-05-17T20:33:58.839Z,21.10
2018-05-17T20:36:26.413Z,24.10
2018-05-17T20:38:53.998Z,21.50
2018-05-17T20:41:21.559Z,23.53
2018-05-17T20:43:49.904Z,21.73
2018-05-17T20:46:17.544Z,21.47
2018-05-17T20:48:45.128Z,22.73
2018-05-17T20:51:12.686Z,25.00
2018-05-17T20:53:40.275Z,23.17
2018-05-17T20:56:08.614Z,23.10
2018-05-17T20:58:36.193Z,23.33
2018-05-17T21:01:03.751Z,21.93
2018-05-17T21:03:31.319Z,21.90
2018-05-17T21:05:58.897Z,22.23
2018-05-17T21:08:27.218Z,24.77
2018-05-17T21:10:54.802Z,26.00
2018-05-17T21:13:22.361Z,26.30
2018-05-17T21:15:49.946Z,23.77
2018-05-17T21:18:18.267Z,24.17
2018-05-17T21:20:45.854Z,24.10
2018-05-17T21:23:13.409Z,21.17
2018-05-17T21:25:41.000Z,21.87
2018-05-17T21:28:09.327Z,22.87
2018-05-17T21:30:36.906Z,23.20
2018-05-17T21:33:04.466Z,21.97
2018-05-17T21:35:32.045Z,21.87
2018-05-17T21:37:59.602Z,23.57
2018-05-17T21:40:27.192Z,22.40
2018-05-17T21:42:55.246Z,22.80
2018-05-17T21:45:22.844Z,23.20
2018-05-17T21:47:50.402Z,20.30
2018-05-17T21:50:18.018Z,22.60
2018-05-17T21:52:46.342Z,23.87
2018-05-17T21:55:13.921Z,22.00
2018-05-17T21:57:41.489Z,20.13
2018-05-17T22:00:09.073Z,22.90
2018-05-17T22:02:37.393Z,21.17
2018-05-17T22:05:04.977Z,23.30
2018-05-17T22:07:32.542Z,23.47
2018-05-17T22:10:00.118Z,23.40
2018-05-17T22:12:27.698Z,21.47
2018-05-17T22:14:56.027Z,21.83
2018-05-17T22:17:23.610Z,20.20
2018-05-17T22:19:51.178Z,20.50
2018-05-17T22:22:19.525Z,22.00
2018-05-17T22:24:47.661Z,22.10
2018-05-17T22:27:15.246Z,21.40
2018-05-17T22:29:42.809Z,20.43
2018-05-17T22:32:10.423Z,21.10
2018-05-17T22:34:38.749Z,21.53
2018-05-17T22:37:06.361Z,19.50
2018-05-17T22:39:33.933Z,20.57
2018-05-17T22:42:01.517Z,21.80
2018-05-17T22:44:29.094Z,25.63
2018-05-17T22:46:57.466Z,31.60
2018-05-17T22:49:25.049Z,29.23
2018-05-17T22:51:53.436Z,24.60
2018-05-17T22:54:21.786Z,22.37
2018-05-17T22:57:01.161Z,22.27
2018-05-17T22:59:28.753Z,19.07
2018-05-17T23:01:56.351Z,19.77
2018-05-17T23:04:23.909Z,23.40
2018-05-17T23:06:51.502Z,22.00
2018-05-17T23:09:19.075Z,19.53
2018-05-17T23:11:46.686Z,21.67
2018-05-17T23:14:14.280Z,21.00
2018-05-17T23:16:42.118Z,19.40
2018-05-17T23:19:09.734Z,19.77
2018-05-17T23:21:37.321Z,17.23
2018-05-17T23:24:04.892Z,19.30
2018-05-17T23:26:32.466Z,18.70
2018-05-17T23:29:00.821Z,17.87
2018-05-17T23:31:28.378Z,17.13
2018-05-17T23:33:55.989Z,17.30
2018-05-17T23:36:23.601Z,16.80
2018-05-17T23:38:51.191Z,15.83
2018-05-17T23:41:30.642Z,14.60
2018-05-17T23:43:58.228Z,16.37
2018-05-17T23:46:25.798Z,15.50
2018-05-17T23:48:53.394Z,15.80
2018-05-17T23:51:20.954Z,13.70
2018-05-17T23:53:49.306Z,13.80
2018-05-17T23:56:16.869Z,12.47
2018-05-17T23:58:44.469Z,11.83
